Time;durP1;ratioP1;P1;durP2;ratioP2;P2;SDS_P1;SDS_P2;PMS_P1;PMS_P2;Temp;Humidity;BMP_temperature;BMP_pressure;BME280_temperature;BME280_humidity;BME280_pressure;Samples;Min_cycle;Max_cycle;Signal;HPM_P1;HPM_P2
2022/02/16 00:02:17;;;;;;;5.07;3.40;;;6.20;99.90;;;;;;5045746;28;20044;-84
2022/02/16 00:04:43;;;;;;;6.97;3.15;;;6.20;99.90;;;;;;5042312;28;20045;-83
2022/02/16 00:07:09;;;;;;;10.70;2.60;;;6.20;99.90;;;;;;5044088;28;20145;-85
2022/02/16 00:09:35;;;;;;;9.13;3.85;;;6.20;99.90;;;;;;5046313;28;20099;-85
2022/02/16 00:12:01;;;;;;;4.10;2.60;;;6.20;99.90;;;;;;5035690;28;20041;-85
2022/02/16 00:14:28;;;;;;;7.32;3.88;;;6.20;99.90;;;;;;5033625;28;20037;-85
2022/02/16 00:16:54;;;;;;;7.95;3.42;;;6.20;99.90;;;;;;5047074;28;20123;-85
2022/02/16 00:19:21;;;;;;;;;;;6.10;99.90;;;;;;5035711;28;20049;-86
2022/02/16 00:21:47;;;;;;;3.60;2.33;;;6.10;99.90;;;;;;5043318;28;19956;-86
2022/02/16 00:24:13;;;;;;;10.40;3.55;;;6.50;99.90;;;;;;5017043;28;20083;-84
2022/02/16 00:26:38;;;;;;;2.78;2.45;;;6.10;99.90;;;;;;5032701;28;20098;-88
2022/02/16 00:29:04;;;;;;;4.72;2.80;;;6.10;99.90;;;;;;5033288;28;20069;-86
2022/02/16 00:31:30;;;;;;;9.25;3.28;;;6.10;99.90;;;;;;5026819;28;20041;-86
2022/02/16 00:33:56;;;;;;;4.85;2.83;;;6.10;99.90;;;;;;5019716;28;20405;-85
2022/02/16 00:36:21;;;;;;;6.75;2.83;;;6.10;99.90;;;;;;5047458;28;20052;-85
2022/02/16 00:38:47;;;;;;;4.30;2.08;;;6.10;99.90;;;;;;5017495;28;20042;-86
2022/02/16 00:41:13;;;;;;;4.10;2.42;;;6.10;99.90;;;;;;5050053;28;20072;-87
2022/02/16 00:43:39;;;;;;;8.98;2.70;;;6.50;99.90;;;;;;5049794;28;20126;-87
2022/02/16 00:46:04;;;;;;;10.88;3.08;;;6.10;99.90;;;;;;5043033;28;20402;-86
2022/02/16 00:48:30;;;;;;;6.15;2.22;;;6.10;99.90;;;;;;5024925;28;20063;-86
2022/02/16 00:50:56;;;;;;;2.97;1.77;;;6.10;99.90;;;;;;5050703;28;20041;-85
2022/02/16 00:53:22;;;;;;;5.10;2.17;;;6.80;99.90;;;;;;5048869;28;20120;-83
2022/02/16 00:55:48;;;;;;;2.42;1.70;;;6.10;99.90;;;;;;5050572;28;20048;-83
2022/02/16 00:58:14;;;;;;;14.02;4.00;;;6.10;99.90;;;;;;5043156;28;20474;-84
2022/02/16 01:00:39;;;;;;;4.20;2.78;;;6.00;99.90;;;;;;5028861;28;20055;-84
2022/02/16 01:03:05;;;;;;;9.10;3.58;;;6.00;99.90;;;;;;5047995;28;20041;-86
2022/02/16 01:05:31;;;;;;;9.98;2.88;;;6.00;99.90;;;;;;5017596;28;20107;-85
2022/02/16 01:07:57;;;;;;;4.43;2.58;;;6.00;99.90;;;;;;5031194;28;20033;-85
2022/02/16 01:10:23;;;;;;;;;;;6.10;99.90;;;;;;5048511;28;20048;-85
2022/02/16 01:12:49;;;;;;;9.77;2.75;;;6.20;99.90;;;;;;5044466;28;19917;-84
2022/02/16 01:15:15;;;;;;;6.20;2.45;;;6.10;99.90;;;;;;5042456;28;20048;-84
2022/02/16 01:17:41;;;;;;;4.60;1.95;;;6.10;99.90;;;;;;5050541;28;20049;-84
2022/02/16 01:20:08;;;;;;;2.78;2.10;;;6.10;99.90;;;;;;4992715;28;20049;-84
2022/02/16 01:22:33;;;;;;;11.85;3.45;;;6.10;99.90;;;;;;5045979;28;20041;-84
2022/02/16 01:24:59;;;;;;;6.00;2.45;;;6.10;99.90;;;;;;5044520;28;20232;-84
2022/02/16 01:27:25;;;;;;;2.22;1.38;;;6.00;99.90;;;;;;5048311;28;20039;-86
2022/02/16 01:29:51;;;;;;;7.22;1.90;;;6.10;99.90;;;;;;5030769;28;20033;-84
2022/02/16 01:32:17;;;;;;;6.82;2.42;;;6.10;99.90;;;;;;5017745;28;20489;-85
2022/02/16 01:34:43;;;;;;;5.40;2.20;;;6.10;99.90;;;;;;5037212;28;20528;-84
2022/02/16 01:37:09;;;;;;;3.92;1.95;;;6.10;99.90;;;;;;5049075;28;20056;-85
2022/02/16 01:39:35;;;;;;;6.30;2.25;;;6.00;99.90;;;;;;5044037;28;20359;-87
2022/02/16 01:42:02;;;;;;;8.75;2.85;;;6.00;99.90;;;;;;5016375;28;20132;-85
2022/02/16 01:44:27;;;;;;;12.52;2.70;;;6.00;99.90;;;;;;5032624;28;20049;-85
2022/02/16 01:46:54;;;;;;;2.50;1.85;;;6.10;99.90;;;;;;5049206;28;20408;-85
2022/02/16 01:49:20;;;;;;;4.05;3.20;;;6.10;99.90;;;;;;5049260;28;20091;-85
2022/02/16 01:51:47;;;;;;;5.75;2.95;;;6.10;99.90;;;;;;5039228;28;20406;-84
2022/02/16 01:54:13;;;;;;;;;;;6.10;99.90;;;;;;5030407;28;20045;-86
2022/02/16 01:56:42;;;;;;;5.97;3.20;;;6.10;99.90;;;;;;5029316;28;20271;-84
2022/02/16 01:59:09;;;;;;;8.90;2.50;;;6.70;99.90;;;;;;5049811;28;20098;-85
2022/02/16 02:01:36;;;;;;;6.47;2.83;;;6.20;99.90;;;;;;5023014;28;20048;-83
2022/02/16 02:04:02;;;;;;;7.45;2.78;;;6.10;99.90;;;;;;5048986;28;20120;-83
2022/02/16 02:06:28;;;;;;;6.90;2.50;;;6.20;99.90;;;;;;5018457;28;20124;-84
2022/02/16 02:08:53;;;;;;;4.28;2.97;;;6.20;99.90;;;;;;5009195;28;20037;-86
2022/02/16 02:11:19;;;;;;;11.95;3.30;;;6.20;99.90;;;;;;5027442;28;20357;-84
2022/02/16 02:13:55;;;;;;;;;;;6.20;99.90;;;;;;5059714;28;20575;-83
2022/02/16 02:16:21;;;;;;;4.95;2.83;;;6.20;99.90;;;;;;5053147;28;19916;-84
2022/02/16 02:18:47;;;;;;;6.03;2.38;;;6.20;99.90;;;;;;5039881;28;20413;-85
2022/02/16 02:21:13;;;;;;;6.05;1.45;;;6.20;99.90;;;;;;5020390;28;20049;-84
2022/02/16 02:23:39;;;;;;;4.90;3.28;;;6.10;99.90;;;;;;5051749;28;20387;-83
2022/02/16 02:26:04;;;;;;;4.28;2.15;;;6.20;99.90;;;;;;5035398;28;20041;-85
2022/02/16 02:28:30;;;;;;;5.60;1.88;;;6.20;99.90;;;;;;5049936;28;20041;-85
2022/02/16 02:30:56;;;;;;;7.97;2.22;;;6.20;99.90;;;;;;5045270;28;20037;-85
2022/02/16 02:33:22;;;;;;;13.45;2.40;;;6.30;99.90;;;;;;5031806;28;20454;-84
2022/02/16 02:35:49;;;;;;;3.90;2.70;;;6.10;99.90;;;;;;5043652;28;20052;-84
2022/02/16 02:38:14;;;;;;;8.23;2.45;;;6.20;99.90;;;;;;5014569;28;20061;-84
2022/02/16 02:40:40;;;;;;;9.70;3.13;;;6.20;99.90;;;;;;5030295;28;20482;-84
2022/02/16 02:43:07;;;;;;;4.05;2.22;;;6.20;99.90;;;;;;5040254;28;20060;-84
2022/02/16 02:45:33;;;;;;;5.13;1.98;;;6.20;99.90;;;;;;5043652;28;20078;-85
2022/02/16 02:47:58;;;;;;;8.75;2.33;;;6.30;99.90;;;;;;5036528;28;20041;-84
2022/02/16 02:50:24;;;;;;;12.88;2.10;;;6.30;99.90;;;;;;5047048;28;20409;-84
2022/02/16 02:52:50;;;;;;;2.15;1.95;;;6.30;99.90;;;;;;5036152;28;20182;-85
2022/02/16 02:55:19;;;;;;;8.55;2.00;;;6.30;99.90;;;;;;5047220;28;20037;-84
2022/02/16 02:57:45;;;;;;;2.97;1.63;;;6.30;99.90;;;;;;5036131;28;20068;-85
2022/02/16 03:00:12;;;;;;;6.28;2.25;;;6.20;99.90;;;;;;5050204;28;20037;-83
2022/02/16 03:02:38;;;;;;;4.75;2.00;;;6.30;99.90;;;;;;5021646;28;20088;-83
2022/02/16 03:05:05;;;;;;;2.55;1.70;;;6.30;99.90;;;;;;5050080;28;20095;-84
2022/02/16 03:07:31;;;;;;;4.90;2.38;;;6.30;99.90;;;;;;5052273;28;20045;-84
2022/02/16 03:09:56;;;;;;;6.05;2.60;;;6.30;99.90;;;;;;5017453;28;20033;-85
2022/02/16 03:12:22;;;;;;;9.27;2.88;;;6.30;99.90;;;;;;5025932;28;20096;-84
2022/02/16 03:14:48;;;;;;;3.20;2.17;;;6.40;99.90;;;;;;5027146;28;20535;-85
2022/02/16 03:17:13;;;;;;;17.65;3.58;;;6.40;99.90;;;;;;5049183;28;20076;-85
2022/02/16 03:19:40;;;;;;;4.65;2.67;;;6.40;99.90;;;;;;5026714;28;20043;-85
2022/02/16 03:22:05;;;;;;;6.53;2.63;;;6.40;99.90;;;;;;5029445;28;20114;-85
2022/02/16 03:24:31;;;;;;;6.97;2.35;;;6.50;99.90;;;;;;5020647;28;20352;-84
2022/02/16 03:26:57;;;;;;;5.50;2.85;;;6.50;99.90;;;;;;5035947;28;20107;-85
2022/02/16 03:29:22;;;;;;;7.20;3.60;;;6.50;99.90;;;;;;5049135;28;20087;-85
2022/02/16 03:31:48;;;;;;;12.75;4.20;;;6.60;99.90;;;;;;5050528;28;20041;-83
2022/02/16 03:34:14;;;;;;;6.88;3.35;;;6.70;99.90;;;;;;5041299;28;20370;-83
2022/02/16 03:36:40;;;;;;;;;;;6.60;99.90;;;;;;5027830;28;20390;-84
2022/02/16 03:39:07;;;;;;;10.65;3.45;;;6.70;99.90;;;;;;5020562;28;19917;-83
2022/02/16 03:41:33;;;;;;;7.72;4.70;;;6.70;99.90;;;;;;5030427;28;20056;-85
2022/02/16 03:43:58;;;;;;;6.32;2.50;;;6.70;99.90;;;;;;5033836;28;20034;-83
2022/02/16 03:46:24;;;;;;;10.80;4.40;;;6.80;99.90;;;;;;5039786;28;20056;-83
2022/02/16 03:48:50;;;;;;;8.80;4.75;;;6.80;99.90;;;;;;5015491;28;20044;-84
2022/02/16 03:51:18;;;;;;;10.27;5.25;;;6.80;99.90;;;;;;5029828;28;20045;-82
2022/02/16 03:53:44;;;;;;;7.68;4.32;;;6.80;99.90;;;;;;5038187;28;20045;-85
2022/02/16 03:56:10;;;;;;;7.35;4.47;;;6.90;99.90;;;;;;5035271;28;20056;-85
2022/02/16 03:58:35;;;;;;;7.80;4.75;;;6.80;99.90;;;;;;5040810;28;20055;-85
2022/02/16 04:01:02;;;;;;;7.30;4.75;;;6.80;99.90;;;;;;5050814;28;20041;-85
2022/02/16 04:03:28;;;;;;;7.32;4.60;;;6.80;99.90;;;;;;5050110;28;20053;-85
2022/02/16 04:05:54;;;;;;;8.57;5.13;;;6.80;99.90;;;;;;5031860;28;20037;-84
2022/02/16 04:08:20;;;;;;;9.82;5.43;;;6.90;99.90;;;;;;5034569;28;20099;-84
2022/02/16 04:10:45;;;;;;;8.15;4.13;;;6.90;99.90;;;;;;5033092;28;20049;-83
2022/02/16 04:13:12;;;;;;;8.85;5.13;;;6.90;99.90;;;;;;5027135;28;20517;-84
2022/02/16 04:15:37;;;;;;;14.60;6.60;;;6.90;99.90;;;;;;5039804;28;20365;-85
2022/02/16 04:18:03;;;;;;;9.70;5.22;;;6.90;99.90;;;;;;5016754;28;20136;-84
2022/02/16 04:20:30;;;;;;;15.25;5.03;;;6.90;99.90;;;;;;5049618;28;20051;-84
2022/02/16 04:22:56;;;;;;;8.70;5.53;;;7.00;99.90;;;;;;5034515;28;20500;-84
2022/02/16 04:25:21;;;;;;;18.88;5.68;;;7.00;99.90;;;;;;5031527;28;20040;-85
2022/02/16 04:27:47;;;;;;;10.10;6.47;;;6.90;99.90;;;;;;5046247;28;20040;-83
2022/02/16 04:30:14;;;;;;;8.35;5.00;;;7.00;99.90;;;;;;5051144;28;20045;-85
2022/02/16 04:32:39;;;;;;;8.63;6.10;;;7.10;99.90;;;;;;5046763;28;20491;-84
2022/02/16 04:35:07;;;;;;;10.18;5.60;;;7.00;99.90;;;;;;5020830;28;20041;-84
2022/02/16 04:37:32;;;;;;;8.57;5.10;;;7.00;99.90;;;;;;5027149;28;20510;-85
2022/02/16 04:40:01;;;;;;;8.90;4.70;;;7.00;99.90;;;;;;5026240;28;20053;-85
2022/02/16 04:42:26;;;;;;;10.70;4.32;;;7.40;99.90;;;;;;5049623;28;20178;-85
2022/02/16 04:44:52;;;;;;;7.85;4.50;;;7.10;99.90;;;;;;5023447;28;20136;-86
2022/02/16 04:47:18;;;;;;;11.13;5.45;;;7.10;99.90;;;;;;5014634;28;20042;-84
2022/02/16 04:49:44;;;;;;;4.97;4.10;;;7.20;99.90;;;;;;5025727;28;20076;-86
2022/02/16 04:52:09;;;;;;;7.45;4.13;;;7.20;99.90;;;;;;5052957;28;20052;-86
2022/02/16 04:54:36;;;;;;;11.23;5.03;;;7.20;99.90;;;;;;5016121;28;20045;-83
2022/02/16 04:57:02;;;;;;;6.85;4.97;;;7.20;99.90;;;;;;5047107;28;20049;-82
2022/02/16 04:59:27;;;;;;;;;;;7.20;99.90;;;;;;5029164;28;20124;-84
2022/02/16 05:01:53;;;;;;;8.30;4.07;;;7.20;99.90;;;;;;5048134;28;20011;-83
2022/02/16 05:04:19;;;;;;;7.75;4.88;;;7.20;99.90;;;;;;5030321;28;20119;-87
2022/02/16 05:06:45;;;;;;;6.57;4.35;;;7.20;99.90;;;;;;5043611;28;20041;-87
2022/02/16 05:09:11;;;;;;;;;;;7.20;99.90;;;;;;5021514;28;20044;-86
2022/02/16 05:11:36;;;;;;;7.90;5.65;;;7.30;99.90;;;;;;5028191;28;19917;-83
2022/02/16 05:14:03;;;;;;;10.20;5.57;;;7.30;99.90;;;;;;5045850;28;20335;-86
2022/02/16 05:16:29;;;;;;;;;;;7.30;99.90;;;;;;5026295;28;20545;-85
2022/02/16 05:18:55;;;;;;;7.83;6.00;;;7.30;99.90;;;;;;5019813;28;19917;-82
2022/02/16 05:21:24;;;;;;;;;;;7.40;99.90;;;;;;5043158;28;20280;-87
2022/02/16 05:23:50;;;;;;;7.68;4.10;;;7.40;99.90;;;;;;5034400;28;19921;-83
2022/02/16 05:26:15;;;;;;;6.28;4.18;;;7.40;99.90;;;;;;5014550;28;20053;-85
2022/02/16 05:28:41;;;;;;;6.72;3.80;;;7.40;99.90;;;;;;5041888;23;20049;-79
2022/02/16 05:31:07;;;;;;;8.38;4.72;;;7.40;99.90;;;;;;5017550;28;20037;-80
2022/02/16 05:33:33;;;;;;;8.45;4.22;;;7.50;99.90;;;;;;5049832;28;20494;-78
2022/02/16 05:35:59;;;;;;;;;;;7.50;99.90;;;;;;5033139;28;20182;-79
2022/02/16 05:38:25;;;;;;;6.35;3.90;;;7.40;99.90;;;;;;5034967;28;19956;-80
2022/02/16 05:40:50;;;;;;;9.98;4.28;;;7.50;99.90;;;;;;5033254;28;20052;-79
2022/02/16 05:43:17;;;;;;;6.57;3.80;;;7.50;99.90;;;;;;5053799;28;20041;-78
2022/02/16 05:45:44;;;;;;;6.95;4.25;;;7.50;99.90;;;;;;5050082;28;20037;-79
2022/02/16 05:48:10;;;;;;;11.63;3.78;;;7.50;99.90;;;;;;5049174;28;20037;-79
2022/02/16 05:50:36;;;;;;;5.10;3.50;;;7.50;99.90;;;;;;5058227;28;20127;-80
2022/02/16 05:53:03;;;;;;;;;;;7.50;99.90;;;;;;5050274;28;20053;-81
2022/02/16 05:55:29;;;;;;;5.80;3.90;;;7.50;99.90;;;;;;5033682;28;19917;-80
2022/02/16 05:57:55;;;;;;;;;;;7.50;99.90;;;;;;5053740;28;20052;-81
2022/02/16 06:00:20;;;;;;;2.13;1.73;;;7.50;99.90;;;;;;5059036;28;19917;-80
2022/02/16 06:02:46;;;;;;;2.85;2.00;;;7.60;99.90;;;;;;5049487;28;20120;-81
2022/02/16 06:05:12;;;;;;;3.88;2.78;;;7.60;99.90;;;;;;5060973;28;20116;-80
2022/02/16 06:07:38;;;;;;;6.90;3.45;;;7.70;99.90;;;;;;5053686;28;20132;-81
2022/02/16 06:10:04;;;;;;;4.07;2.92;;;7.60;99.90;;;;;;5056946;28;20803;-81
2022/02/16 06:12:30;;;;;;;;;;;7.60;99.90;;;;;;5053355;28;20094;-80
2022/02/16 06:14:55;;;;;;;9.25;3.05;;;7.60;99.90;;;;;;5057799;28;19921;-81
2022/02/16 06:17:21;;;;;;;11.07;3.28;;;7.60;99.90;;;;;;5056394;28;20040;-81
2022/02/16 06:19:47;;;;;;;6.60;3.15;;;7.60;99.90;;;;;;5070972;28;20045;-80
2022/02/16 06:22:13;;;;;;;8.60;4.57;;;7.60;99.90;;;;;;5039950;28;20094;-81
2022/02/16 06:24:38;;;;;;;9.65;4.22;;;7.60;99.90;;;;;;5053213;28;20052;-81
2022/02/16 06:27:04;;;;;;;4.90;3.20;;;7.70;99.90;;;;;;5055145;28;20079;-82
2022/02/16 06:29:30;;;;;;;4.47;2.42;;;7.80;99.90;;;;;;5048029;28;20048;-82
2022/02/16 06:31:56;;;;;;;5.05;3.67;;;7.70;99.90;;;;;;5042715;28;20053;-82
2022/02/16 06:34:22;;;;;;;3.38;3.08;;;7.70;99.90;;;;;;5053703;28;20409;-82
2022/02/16 06:36:48;;;;;;;5.40;3.97;;;7.70;99.90;;;;;;5020534;28;20098;-81
2022/02/16 06:39:13;;;;;;;4.78;3.22;;;7.80;99.90;;;;;;5037219;28;20040;-81
2022/02/16 06:41:39;;;;;;;4.63;3.22;;;7.70;99.90;;;;;;5056022;28;20119;-81
2022/02/16 06:44:05;;;;;;;9.07;2.90;;;7.70;99.90;;;;;;5062829;28;20056;-81
2022/02/16 06:46:31;;;;;;;4.45;3.10;;;7.90;99.90;;;;;;5065937;28;20063;-82
2022/02/16 06:48:56;;;;;;;5.38;3.10;;;7.80;99.90;;;;;;5064314;28;20048;-81
2022/02/16 06:51:22;;;;;;;4.68;3.00;;;7.80;99.90;;;;;;5053101;28;20420;-82
2022/02/16 06:53:55;;;;;;;5.22;3.55;;;7.70;99.90;;;;;;5052338;28;20083;-83
2022/02/16 06:56:25;;;;;;;3.50;2.47;;;7.80;99.90;;;;;;5051398;28;20523;-81
2022/02/16 06:58:50;;;;;;;5.18;3.17;;;7.80;99.90;;;;;;5053098;28;20537;-82
2022/02/16 07:01:16;;;;;;;4.85;3.13;;;7.80;99.90;;;;;;5047720;28;20140;-84
2022/02/16 07:03:42;;;;;;;5.25;3.30;;;7.80;99.90;;;;;;5039308;28;20059;-79
2022/02/16 07:06:08;;;;;;;5.57;2.90;;;7.80;99.90;;;;;;5044907;28;20066;-81
2022/02/16 07:08:34;;;;;;;7.00;3.38;;;7.90;99.90;;;;;;5045828;28;20137;-82
2022/02/16 07:11:03;;;;;;;5.68;3.10;;;7.90;99.90;;;;;;5042063;28;20485;-82
2022/02/16 07:13:28;;;;;;;3.85;2.78;;;7.60;99.90;;;;;;5056998;28;20744;-82
2022/02/16 07:15:54;;;;;;;4.75;2.40;;;7.90;99.90;;;;;;5051078;28;20044;-83
2022/02/16 07:18:20;;;;;;;2.90;2.20;;;7.90;99.90;;;;;;5034465;28;20119;-82
2022/02/16 07:20:46;;;;;;;3.35;1.95;;;8.00;99.90;;;;;;5050358;28;20128;-81
2022/02/16 07:23:12;;;;;;;2.92;2.30;;;8.00;99.90;;;;;;5033857;28;20064;-87
2022/02/16 07:25:38;;;;;;;3.67;2.65;;;8.00;99.90;;;;;;5026694;28;20407;-80
2022/02/16 07:28:06;;;;;;;;;;;8.00;99.90;;;;;;5032684;28;20793;-83
2022/02/16 07:30:32;;;;;;;4.78;2.30;;;8.10;99.90;;;;;;5050205;28;20576;-82
2022/02/16 07:32:58;;;;;;;2.90;1.95;;;8.00;99.90;;;;;;5045502;28;20036;-82
2022/02/16 07:35:24;;;;;;;2.35;1.80;;;8.20;99.90;;;;;;5035925;28;20040;-80
2022/02/16 07:37:51;;;;;;;3.53;1.77;;;8.20;99.90;;;;;;5035935;28;20155;-81
2022/02/16 07:40:17;;;;;;;4.32;2.05;;;8.20;99.90;;;;;;5037009;28;20826;-83
2022/02/16 07:42:43;;;;;;;3.28;1.90;;;8.20;99.90;;;;;;5052457;28;20045;-82
2022/02/16 07:45:10;;;;;;;1.63;1.42;;;8.30;99.90;;;;;;5032043;28;20786;-83
2022/02/16 07:47:36;;;;;;;2.58;1.70;;;8.40;99.90;;;;;;5019431;28;20050;-84
2022/02/16 07:50:03;;;;;;;3.67;2.42;;;8.40;99.90;;;;;;5005087;28;20451;-81
2022/02/16 07:52:31;;;;;;;3.63;1.40;;;8.40;99.90;;;;;;5029457;28;20033;-79
2022/02/16 07:54:59;;;;;;;2.67;1.65;;;8.40;99.90;;;;;;5014223;28;20490;-80
2022/02/16 07:57:25;;;;;;;2.60;1.65;;;8.50;99.90;;;;;;5042501;28;20127;-78
2022/02/16 07:59:51;;;;;;;2.33;1.52;;;8.50;99.90;;;;;;5030502;28;20060;-78
2022/02/16 08:02:17;;;;;;;2.85;1.50;;;8.60;99.90;;;;;;5049904;28;20047;-82
2022/02/16 08:04:43;;;;;;;;;;;8.60;99.90;;;;;;5028576;28;20112;-82
2022/02/16 08:07:09;;;;;;;1.80;1.63;;;8.60;99.90;;;;;;5044022;28;19920;-81
2022/02/16 08:09:34;;;;;;;1.83;1.15;;;8.60;99.90;;;;;;5045314;28;20045;-81
2022/02/16 08:12:00;;;;;;;1.23;1.02;;;8.70;99.90;;;;;;5004710;28;20072;-80
2022/02/16 08:14:26;;;;;;;2.40;1.75;;;8.70;99.90;;;;;;5022207;28;20580;-79
2022/02/16 08:16:55;;;;;;;1.55;1.40;;;8.70;99.90;;;;;;5030097;28;20041;-80
2022/02/16 08:19:23;;;;;;;1.60;1.30;;;8.70;99.90;;;;;;5019974;28;20541;-81
2022/02/16 08:21:49;;;;;;;1.65;1.20;;;8.80;99.90;;;;;;5030226;28;20036;-83
2022/02/16 08:24:15;;;;;;;1.38;1.17;;;8.80;99.90;;;;;;5029431;28;20098;-79
2022/02/16 08:26:41;;;;;;;3.05;2.10;;;8.90;99.90;;;;;;5029036;28;20752;-81
2022/02/16 08:29:07;;;;;;;2.20;1.33;;;8.90;99.90;;;;;;5029868;28;20474;-80
2022/02/16 08:31:33;;;;;;;2.08;1.42;;;9.00;99.90;;;;;;5030632;28;20056;-80
2022/02/16 08:33:59;;;;;;;2.28;1.13;;;9.00;99.90;;;;;;5048491;28;20063;-80
2022/02/16 08:36:26;;;;;;;1.75;1.27;;;9.00;99.90;;;;;;5016626;28;20132;-81
2022/02/16 08:38:52;;;;;;;1.67;1.42;;;9.10;99.90;;;;;;5031335;28;20053;-81
2022/02/16 08:41:18;;;;;;;2.70;1.55;;;9.10;99.90;;;;;;5049429;28;20039;-83
2022/02/16 08:43:43;;;;;;;1.67;1.20;;;9.10;99.90;;;;;;5048837;28;20494;-80
2022/02/16 08:46:09;;;;;;;3.40;1.40;;;9.10;99.90;;;;;;5032079;28;20041;-80
2022/02/16 08:48:36;;;;;;;1.35;1.23;;;9.20;99.90;;;;;;5032445;28;20041;-84
2022/02/16 08:51:02;;;;;;;2.50;1.70;;;9.20;99.90;;;;;;5018372;28;20701;-83
2022/02/16 08:53:29;;;;;;;2.33;1.60;;;9.30;99.90;;;;;;5047994;28;20061;-80
2022/02/16 08:55:55;;;;;;;3.00;1.50;;;9.30;99.90;;;;;;5016510;28;20060;-79
2022/02/16 08:58:21;;;;;;;1.85;1.25;;;9.30;99.90;;;;;;5053346;28;20044;-79
2022/02/16 09:00:49;;;;;;;1.42;1.30;;;9.30;99.90;;;;;;5050062;28;20440;-78
2022/02/16 09:03:15;;;;;;;1.38;1.10;;;9.30;99.90;;;;;;5030071;28;20136;-79
2022/02/16 09:05:41;;;;;;;3.38;2.80;;;9.30;99.90;;;;;;5029442;28;20160;-80
2022/02/16 09:08:07;;;;;;;3.58;2.30;;;9.30;99.90;;;;;;5030803;28;20045;-80
2022/02/16 09:10:33;;;;;;;1.80;1.63;;;9.40;99.90;;;;;;5030731;28;20052;-81
2022/02/16 09:12:59;;;;;;;3.03;1.95;;;9.40;99.90;;;;;;5031042;28;20040;-77
2022/02/16 09:15:27;;;;;;;3.30;2.42;;;9.40;99.90;;;;;;5031356;28;20048;-80
2022/02/16 09:17:54;;;;;;;6.38;3.70;;;9.50;99.90;;;;;;5030623;28;20152;-80
2022/02/16 09:20:20;;;;;;;8.02;2.92;;;9.60;99.90;;;;;;5049341;28;20040;-79
2022/02/16 09:22:46;;;;;;;3.88;2.58;;;9.70;99.90;;;;;;5035907;28;20457;-77
2022/02/16 09:25:12;;;;;;;5.43;3.10;;;9.70;99.90;;;;;;5035754;28;20064;-78
2022/02/16 09:27:38;;;;;;;;;;;9.90;99.90;;;;;;5043817;28;20036;-79
2022/02/16 09:30:05;;;;;;;6.30;2.70;;;9.90;99.90;;;;;;5048680;28;19917;-78
2022/02/16 09:32:30;;;;;;;7.93;2.67;;;9.90;99.90;;;;;;5029259;28;20029;-79
2022/02/16 09:34:57;;;;;;;8.88;3.60;;;10.00;99.90;;;;;;5030295;28;20414;-79
2022/02/16 09:37:24;;;;;;;4.57;2.42;;;10.20;99.90;;;;;;5031097;28;20049;-77
2022/02/16 09:39:51;;;;;;;5.30;1.63;;;10.10;99.90;;;;;;5033269;28;20048;-78
2022/02/16 09:42:18;;;;;;;2.65;1.70;;;10.20;99.90;;;;;;5046338;28;20044;-79
2022/02/16 09:45:00;;;;;;;5.40;1.88;;;10.20;99.90;;;;;;5030179;28;20052;-80
2022/02/16 09:47:26;;;;;;;6.80;2.20;;;10.20;99.90;;;;;;5044964;28;20044;-77
2022/02/16 09:49:52;;;;;;;3.35;1.50;;;10.30;99.90;;;;;;5049235;28;20052;-80
2022/02/16 09:52:21;;;;;;;2.55;1.45;;;10.30;99.90;;;;;;5033483;28;20037;-77
2022/02/16 09:54:47;;;;;;;2.30;1.23;;;10.30;99.90;;;;;;5035088;28;20094;-78
2022/02/16 09:57:13;;;;;;;;;;;10.40;99.90;;;;;;5035240;28;20044;-79
2022/02/16 09:59:40;;;;;;;1.55;1.00;;;10.50;99.90;;;;;;5052577;28;19920;-79
2022/02/16 10:02:11;;;;;;;5.13;2.60;;;10.60;99.90;;;;;;5030273;28;20057;-80
2022/02/16 10:04:38;;;;;;;5.75;1.92;;;10.70;99.90;;;;;;5045835;28;20051;-77
2022/02/16 10:07:25;;;;;;;5.15;2.70;;;10.80;99.90;;;;;;5062612;28;20051;-80
2022/02/16 10:09:52;;;;;;;4.68;1.40;;;10.90;99.90;;;;;;5066821;28;20540;-78
2022/02/16 10:12:18;;;;;;;10.88;1.95;;;10.90;99.90;;;;;;5061273;28;20671;-78
2022/02/16 10:14:45;;;;;;;1.05;0.90;;;11.00;99.90;;;;;;5051538;28;20083;-77
2022/02/16 10:17:23;;;;;;;4.50;1.83;;;11.10;99.90;;;;;;5045875;28;20103;-77
2022/02/16 10:20:03;;;;;;;2.63;1.05;;;11.00;99.90;;;;;;5044459;28;20486;-78
2022/02/16 10:22:41;;;;;;;6.60;1.27;;;11.10;99.90;;;;;;5050963;28;20044;-79
2022/02/16 10:25:13;;;;;;;1.35;1.10;;;11.20;99.90;;;;;;5052886;28;20076;-78
2022/02/16 10:27:39;;;;;;;6.68;1.35;;;11.20;99.90;;;;;;5050617;28;20029;-78
2022/02/16 10:30:14;;;;;;;2.05;1.33;;;11.30;99.90;;;;;;5033588;28;20052;-79
2022/02/16 10:32:40;;;;;;;4.35;2.00;;;11.30;99.90;;;;;;5034659;28;20102;-80
2022/02/16 10:35:07;;;;;;;3.33;1.27;;;11.30;99.90;;;;;;5016177;28;20049;-79
2022/02/16 10:37:35;;;;;;;5.65;1.40;;;11.30;99.90;;;;;;5034073;28;20048;-78
2022/02/16 10:40:11;;;;;;;2.58;1.50;;;11.30;99.90;;;;;;5052000;28;20051;-80
2022/02/16 10:42:54;;;;;;;3.70;1.60;;;11.30;99.90;;;;;;5050058;28;20508;-80
2022/02/16 10:45:21;;;;;;;1.20;1.00;;;11.30;99.90;;;;;;5050424;28;20055;-82
2022/02/16 10:48:01;;;;;;;7.93;1.50;;;11.30;99.90;;;;;;5019233;28;20051;-80
2022/02/16 10:50:34;;;;;;;1.67;0.82;;;11.30;99.90;;;;;;5047934;28;20037;-81
2022/02/16 10:53:03;;;;;;;3.58;1.10;;;11.30;99.90;;;;;;5030162;28;20045;-81
2022/02/16 10:55:39;;;;;;;5.60;1.60;;;11.40;99.90;;;;;;5032386;28;20102;-82
2022/02/16 10:58:10;;;;;;;1.75;1.42;;;11.40;99.90;;;;;;5031983;28;20037;-82
2022/02/16 11:00:40;;;;;;;2.85;1.23;;;11.50;99.90;;;;;;5032724;28;20720;-79
2022/02/16 11:03:09;;;;;;;3.53;1.05;;;11.50;99.90;;;;;;5052790;28;20055;-82
2022/02/16 11:05:46;;;;;;;6.85;1.52;;;11.50;99.90;;;;;;5025717;28;20067;-82
2022/02/16 11:08:18;;;;;;;4.43;1.25;;;11.40;99.90;;;;;;5049540;28;20151;-81
2022/02/16 11:10:45;;;;;;;2.63;1.08;;;11.40;99.90;;;;;;5041261;28;20041;-79
2022/02/16 11:13:15;;;;;;;5.03;2.03;;;11.50;99.90;;;;;;5018978;28;20517;-83
2022/02/16 11:15:41;;;;;;;4.20;1.20;;;11.50;99.90;;;;;;5032543;28;20048;-81
2022/02/16 11:18:16;;;;;;;1.48;1.13;;;11.80;99.90;;;;;;5049037;28;20072;-81
2022/02/16 11:20:42;;;;;;;4.35;0.82;;;11.50;99.90;;;;;;5028145;28;20045;-80
2022/02/16 11:23:10;;;;;;;1.88;1.38;;;11.50;99.90;;;;;;5028159;28;20131;-78
2022/02/16 11:25:40;;;;;;;4.47;1.13;;;11.50;99.90;;;;;;5046612;28;20057;-78
2022/02/16 11:28:11;;;;;;;7.20;1.38;;;11.50;99.90;;;;;;5052758;28;20079;-77
2022/02/16 11:30:39;;;;;;;5.72;1.50;;;11.60;99.90;;;;;;5050880;28;20041;-77
2022/02/16 11:33:13;;;;;;;2.15;1.30;;;11.60;99.90;;;;;;5050532;28;20490;-78
2022/02/16 11:35:52;;;;;;;3.30;1.50;;;11.60;99.90;;;;;;5048866;28;20116;-78
2022/02/16 11:38:23;;;;;;;2.22;1.25;;;11.60;99.90;;;;;;5038023;28;20037;-80
2022/02/16 11:40:53;;;;;;;9.50;1.48;;;11.60;99.90;;;;;;5032202;28;20052;-79
2022/02/16 11:43:22;;;;;;;1.77;1.00;;;11.70;99.90;;;;;;5046523;28;20379;-80
2022/02/16 11:46:00;;;;;;;4.78;1.65;;;12.30;99.90;;;;;;5061825;28;20068;-78
2022/02/16 11:48:36;;;;;;;3.38;1.10;;;11.80;99.90;;;;;;5053066;28;20352;-77
2022/02/16 11:51:24;;;;;;;1.38;1.08;;;11.70;99.90;;;;;;5048781;28;20060;-80
2022/02/16 11:53:54;;;;;;;2.72;1.33;;;11.70;99.90;;;;;;5049990;28;20663;-79
2022/02/16 11:56:22;;;;;;;4.75;1.15;;;11.70;99.90;;;;;;5027601;28;20156;-76
2022/02/16 11:59:13;;;;;;;2.60;1.25;;;11.80;99.90;;;;;;5049012;28;20060;-76
2022/02/16 12:02:13;;;;;;;3.53;1.45;;;12.10;99.90;;;;;;5045028;28;20049;-78
2022/02/16 12:04:59;;;;;;;2.03;1.42;;;11.80;99.90;;;;;;5031694;28;20044;-79
2022/02/16 12:07:27;;;;;;;5.87;1.60;;;11.80;99.90;;;;;;5024945;28;20045;-78
2022/02/16 12:10:16;;;;;;;5.95;1.10;;;11.80;99.90;;;;;;5016428;28;20044;-78
2022/02/16 12:12:43;;;;;;;3.65;1.67;;;11.80;99.90;;;;;;5051426;28;20101;-80
2022/02/16 12:15:09;;;;;;;1.20;1.02;;;11.70;99.90;;;;;;5040906;28;20114;-78
2022/02/16 12:17:35;;;;;;;;;;;11.80;99.90;;;;;;5032695;28;20041;-81
2022/02/16 12:20:06;;;;;;;4.32;1.98;;;11.70;99.90;;;;;;5031903;28;20685;-80
2022/02/16 12:22:39;;;;;;;7.05;1.40;;;11.60;99.90;;;;;;5027768;28;20045;-82
2022/02/16 12:25:10;;;;;;;3.30;0.95;;;11.60;99.90;;;;;;5027909;28;20731;-81
2022/02/16 12:27:37;;;;;;;6.40;1.55;;;11.70;99.90;;;;;;5035714;28;20041;-82
2022/02/16 12:30:03;;;;;;;4.30;1.25;;;11.70;99.90;;;;;;5052632;28;20075;-82
2022/02/16 12:32:30;;;;;;;3.75;1.75;;;11.70;99.90;;;;;;5048083;28;20276;-81
2022/02/16 12:35:07;;;;;;;1.52;1.02;;;11.70;99.90;;;;;;5050506;28;20750;-78
2022/02/16 12:37:33;;;;;;;2.15;1.08;;;11.60;99.90;;;;;;5028536;28;20060;-79
2022/02/16 12:40:11;;;;;;;;;;;11.70;99.90;;;;;;5030964;28;20106;-80
2022/02/16 12:42:42;;;;;;;5.90;1.73;;;11.60;99.90;;;;;;5031260;28;19963;-80
2022/02/16 12:45:09;;;;;;;10.48;1.88;;;11.70;99.90;;;;;;5045597;28;20104;-79
2022/02/16 12:47:34;;;;;;;10.27;2.25;;;11.70;99.90;;;;;;5045506;28;20128;-78
2022/02/16 12:50:08;;;;;;;4.60;1.85;;;11.60;99.90;;;;;;5044781;28;20182;-79
2022/02/16 12:52:34;;;;;;;4.97;2.00;;;11.60;99.90;;;;;;5034347;28;20363;-77
2022/02/16 12:55:03;;;;;;;5.75;1.13;;;11.70;99.90;;;;;;5046079;28;20060;-78
2022/02/16 12:57:29;;;;;;;9.55;2.17;;;11.60;99.90;;;;;;5044917;28;20048;-82
2022/02/16 13:02:44;;;;;;;2.65;0.90;;;11.70;99.90;;;;;;5037541;28;20057;-80